Estación Meteorológica Peña el Pijo (Robertgarden) [ 04/24/19 15:59:24 CEST ]

Fecha Hora Presion(HPa) Temp (°C) Humedad % Rocio (°C) Viento ( m/s) Direccion Lluvia 1Hora(mm) Lluvia 24H(mm) LLuvia Total(mm)
2019-Feb-22 01:01:42 1019.600 1.6 74 -2.6         183.37
2019-Feb-22 02:01:42 1019.500 1.2 75 -2.8         183.37
2019-Feb-22 03:01:44 1019.600 0.9 76 -2.9         183.37
2019-Feb-22 04:05:12 1019.400 0.6 76 -3.2         183.37
2019-Feb-22 05:01:56 1019.400 0.4 76 -3.4         183.37
2019-Feb-22 06:01:50 1019.600 0.1 75 -3.8         183.37
2019-Feb-22 07:01:42 1019.700 0.2 74 -3.9         183.37
2019-Feb-22 08:01:36 1019.800 -0.1 72 -4.5         183.37
2019-Feb-22 09:01:48 1020.100 1.1 73 -3.3         183.37
2019-Feb-22 10:01:33 1020.000 7.4 53 -1.6         183.37
2019-Feb-22 11:01:40 1019.700 15.1 35 -0.4         183.37
2019-Feb-22 12:01:48 1019.200 17.5 26 -2.4         183.37
2019-Feb-22 13:02:08 1018.400 18.2 24 -2.9 0.7 NE     183.37
2019-Feb-22 14:01:32 1017.700 20.4 20 -3.3         183.37
2019-Feb-22 15:01:49 1017.200 22.1 17 -4.6         183.37
2019-Feb-22 16:01:48 1017.000 20.8 19 -3.9 0.3 NE     183.37
2019-Feb-22 17:01:40 1017.100 19.8 20 -3.8         183.37
2019-Feb-22 18:01:43 1017.300 16.9 22 -5.1         183.37
2019-Feb-22 19:01:40 1018.100 12.7 29 -5.0         183.37
2019-Feb-22 20:01:40 1018.800 8.2 40 -4.9         183.37
2019-Feb-22 21:01:38 1019.200 7.6 43 -4.3         183.37
2019-Feb-22 22:01:34 1019.700 5.3 47 -4.8         183.37
2019-Feb-22 23:01:56 1020.000 3.9 53 -4.9         183.37

Temperatura Máxima:22°    Temperatura Mínima:
Presión Máxima:1020.100 Hpa    Presión Mínima:1017.000 Hpa


Volver